WSSL/XSP METAR and TAF weather

Enter ICAO airport designator
Station Type Date Time Source
WSSL METAR 2019/06/19 00:00 UTC NOAA

WSSL 190000Z 04005KT 9999 FEW016 BKN150 27/25 Q1010


Station Type Date Time Source
WSSL Decoded METAR 2019/06/19 00:00 UTC NOAA

Station name not available
Jun 18, 2019 - 08:00 PM EDT / 2019.06.19 0000 UTC
Wind: from the NE (040 degrees) at 6 MPH (5 KT):0
Visibility: greater than 7 mile(s):0
Sky conditions: mostly cloudy
Temperature: 80 F (27 C)
Dew Point: 77 F (25 C)
Relative Humidity: 88%
Pressure (altimeter): 29.83 in. Hg (1010 hPa)
ob: WSSL 190000Z 04005KT 9999 FEW016 BKN150 27/25 Q1010
cycle: 0

Station Type Date Time Source
WSSL TAF 2019/06/18 18:00 UTC NOAA

TAF WSSL 181700Z 1818/2000 16007KT 9999 FEW015 SCT020
TEMPO 1901/1905 3000 TSRA FEW012CB BKN015

Example: see airport list